KBTL/BTL METAR and TAF weather

Enter ICAO airport designator
Station Type Date Time Source
KBTL METAR 2019/08/24 08:53 UTC NOAA

KBTL 240853Z AUTO 00000KT 10SM CLR 12/10 A3030 RMK AO2 SLP257 T01220100 53008


Station Type Date Time Source
KBTL Decoded METAR 2019/08/24 08:53 UTC NOAA

Station name not available
Aug 24, 2019 - 04:53 AM EDT / 2019.08.24 0853 UTC
Wind: Calm:0
Visibility: 10 mile(s):0
Sky conditions: clear
Temperature: 54.0 F (12.2 C)
Dew Point: 50.0 F (10.0 C)
Relative Humidity: 86%
Pressure (altimeter): 30.3 in. Hg (1026 hPa)
Pressure tendency: 0.02 inches (0.8 hPa) higher than three hours ago
ob: KBTL 240853Z AUTO 00000KT 10SM CLR 12/10 A3030 RMK AO2 SLP257 T01220100 53008
cycle: 9

Station Type Date Time Source
KBTL TAF 2019/08/24 06:42 UTC NOAA

TAF KBTL 240540Z 2406/2506 06005KT P6SM SKC
FM241600 07008KT P6SM SCT050

Example: see airport list